Time;durP1;ratioP1;P1;durP2;ratioP2;P2;SDS_P1;SDS_P2;PMS_P1;PMS_P2;Temp;Humidity;BMP_temperature;BMP_pressure;BME280_temperature;BME280_humidity;BME280_pressure;Samples;Min_cycle;Max_cycle;Signal;HPM_P1;HPM_P2
2021/12/27 00:01:33;;;;;;;13.60;5.20;;;;;;;-11.00;66.72;99079.98;102164;1313;73586;-20
2021/12/27 00:04:02;;;;;;;18.70;8.30;;;;;;;-10.85;66.14;99078.23;101893;1314;61226;-19
2021/12/27 00:06:30;;;;;;;21.50;8.70;;;;;;;-11.10;66.82;99075.40;102057;1312;61093;-19
2021/12/27 00:09:18;;;;;;;21.30;7.10;;;;;;;-11.56;67.54;99073.56;102030;1313;75241;-20
2021/12/27 00:12:05;;;;;;;8.60;3.50;;;;;;;-11.95;67.72;99071.70;101990;1317;76442;-19
2021/12/27 00:14:35;;;;;;;9.90;3.60;;;;;;;-11.52;68.87;99073.73;102031;1312;74786;-20
2021/12/27 00:17:05;;;;;;;3.20;1.50;;;;;;;-10.82;67.81;99074.05;102123;1313;61227;-19
2021/12/27 00:19:55;;;;;;;22.50;7.40;;;;;;;-10.90;66.06;99077.20;101840;1314;62390;-20
2021/12/27 00:22:25;;;;;;;10.00;4.10;;;;;;;-11.40;65.74;99077.87;102087;1316;74447;-20
2021/12/27 00:24:54;;;;;;;8.30;4.00;;;;;;;-11.99;65.64;99073.17;101927;1312;75192;-19
2021/12/27 00:27:23;;;;;;;2.00;1.10;;;;;;;-12.39;66.79;99077.13;102078;1312;74241;-19
2021/12/27 00:29:52;;;;;;;6.50;3.40;;;;;;;-11.92;66.72;99076.25;102004;1316;61156;-19
2021/12/27 00:32:21;;;;;;;14.70;5.80;;;;;;;-11.49;66.13;99081.48;102055;1313;62060;-19
2021/12/27 00:34:50;;;;;;;18.30;7.70;;;;;;;-11.62;65.86;99080.54;102071;1313;74175;-19
2021/12/27 00:37:18;;;;;;;15.10;6.90;;;;;;;-12.03;65.82;99080.51;101987;1314;76024;-19
2021/12/27 00:39:46;;;;;;;5.80;2.00;;;;;;;-12.47;66.43;99078.86;102095;1317;73179;-19
2021/12/27 00:42:15;;;;;;;4.60;1.50;;;;;;;-12.60;67.07;99079.03;102094;1316;62586;-19
2021/12/27 00:44:43;;;;;;;5.80;2.60;;;;;;;-11.90;66.70;99080.45;102017;1313;61229;-20
2021/12/27 00:47:11;;;;;;;19.30;5.50;;;;;;;-11.56;66.06;99081.27;102173;1312;75578;-20
2021/12/27 00:49:41;;;;;;;29.00;8.00;;;;;;;-11.73;65.64;99082.45;102082;1316;76612;-19
2021/12/27 00:52:09;;;;;;;14.20;8.50;;;;;;;-12.08;65.35;99080.47;101954;1312;73587;-19
2021/12/27 00:54:38;;;;;;;11.80;3.60;;;;;;;-12.45;66.24;99078.21;102123;1312;61241;-20
2021/12/27 00:57:06;;;;;;;9.60;4.50;;;;;;;-12.32;66.53;99079.03;102133;1313;61319;-19
2021/12/27 00:59:36;;;;;;;10.40;4.20;;;;;;;-11.61;65.36;99083.55;102136;1319;74154;-20
2021/12/27 01:02:04;;;;;;;13.30;6.60;;;;;;;-11.47;64.48;99088.53;101939;1316;75184;-19
2021/12/27 01:04:32;;;;;;;15.40;7.60;;;;;;;-11.78;64.67;99082.57;102101;1312;73628;-19
2021/12/27 01:07:01;;;;;;;20.20;8.90;;;;;;;-12.25;64.90;99078.61;101937;1312;61591;-19
2021/12/27 01:17:50;;;;;;;18.70;9.90;;;;;;;-11.70;64.72;99084.98;101221;1320;71919;-20
2021/12/27 01:20:21;;;;;;;21.80;10.50;;;;;;;-12.09;65.57;99081.96;101377;1324;61234;-20
2021/12/27 01:22:50;;;;;;;18.30;5.50;;;;;;;-12.41;65.75;99080.43;101057;1322;61213;-19
2021/12/27 01:25:19;;;;;;;18.40;4.50;;;;;;;-12.36;66.37;99073.30;101126;1321;71583;-19
2021/12/27 01:27:47;;;;;;;15.70;6.00;;;;;;;-11.61;65.26;99079.70;101354;1318;73366;-19
2021/12/27 01:30:16;;;;;;;31.40;10.00;;;;;;;-11.41;64.42;99079.86;101447;1318;73311;-20
2021/12/27 01:32:53;;;;;;;20.50;10.10;;;;;;;-11.65;64.33;99080.02;101265;1323;61379;-20
2021/12/27 01:35:22;;;;;;;18.60;7.20;;;;;;;-12.11;63.63;99079.43;101142;1325;61187;-19
2021/12/27 01:37:50;;;;;;;20.10;5.00;;;;;;;-12.52;64.36;99076.45;101363;1319;73899;-19
2021/12/27 01:40:21;;;;;;;21.20;5.20;;;;;;;-12.33;64.99;99080.86;101516;1318;74786;-19
2021/12/27 01:43:00;;;;;;;18.50;7.40;;;;;;;-11.62;64.45;99080.70;101130;1321;73182;-20
2021/12/27 01:45:29;;;;;;;22.40;9.30;;;;;;;-11.50;64.25;99083.98;101122;1318;61247;-19
2021/12/27 01:47:58;;;;;;;15.80;7.90;;;;;;;-11.79;64.54;99086.58;101940;1312;61173;-19
2021/12/27 01:50:26;;;;;;;5.70;2.80;;;;;;;-12.19;65.01;99078.68;102144;1313;75454;-19
2021/12/27 01:52:54;;;;;;;4.80;1.80;;;;;;;-12.59;65.34;99081.39;102177;1312;76133;-19
2021/12/27 01:55:22;;;;;;;12.30;4.00;;;;;;;-12.22;65.28;99079.64;101712;1315;73154;-19
2021/12/27 01:57:51;;;;;;;17.20;5.50;;;;;;;-11.79;64.29;99078.89;101936;1313;62405;-20
2021/12/27 02:00:19;;;;;;;20.30;10.90;;;;;;;-11.90;63.93;99078.95;102210;1312;61123;-20
2021/12/27 02:02:47;;;;;;;20.60;9.60;;;;;;;-12.28;63.34;99075.23;102159;1312;75660;-19
2021/12/27 02:05:17;;;;;;;15.40;5.40;;;;;;;-12.68;64.01;99076.60;102102;1312;75096;-19
2021/12/27 02:07:45;;;;;;;11.00;3.70;;;;;;;-12.78;64.64;99078.98;102033;1312;72697;-19
2021/12/27 02:10:14;;;;;;;23.30;7.50;;;;;;;-12.09;64.20;99084.46;101936;1312;61503;-19
2021/12/27 02:12:44;;;;;;;32.00;10.90;;;;;;;-11.67;63.88;99085.69;102096;1312;61909;-19
2021/12/27 02:15:12;;;;;;;15.90;8.60;;;;;;;-11.90;62.58;99082.63;101963;1312;73857;-19
2021/12/27 02:17:42;;;;;;;13.30;5.50;;;;;;;-12.41;62.71;99083.95;102073;1313;76252;-19
2021/12/27 02:20:22;;;;;;;6.20;3.00;;;;;;;-13.06;63.78;99079.60;101816;1316;74494;-19
2021/12/27 02:22:53;;;;;;;11.30;4.40;;;;;;;-12.98;64.70;99080.89;102218;1314;62288;-19
2021/12/27 02:25:22;;;;;;;9.30;4.20;;;;;;;-12.41;63.43;99085.62;102176;1312;61266;-19
2021/12/27 02:27:50;;;;;;;31.20;10.30;;;;;;;-12.45;63.34;99088.42;102053;1313;74777;-19
2021/12/27 02:30:21;;;;;;;6.00;2.40;;;;;;;-12.81;62.98;99088.97;102069;1312;75906;-19
2021/12/27 02:32:55;;;;;;;10.40;3.50;;;;;;;-13.29;64.12;99085.11;101934;1312;74167;-19
2021/12/27 02:35:22;;;;;;;;;;;;;;;-13.38;64.91;99090.52;101623;1316;63791;-19
2021/12/27 02:37:51;;;;;;;4.50;2.30;;;;;;;-12.64;64.98;99092.20;102046;1312;61091;-19
2021/12/27 02:40:21;;;;;;;17.10;6.70;;;;;;;-12.29;64.05;99086.60;102214;1312;73965;-19
2021/12/27 02:43:16;;;;;;;19.00;8.10;;;;;;;-12.51;63.60;99082.84;101908;1313;75253;-19
2021/12/27 02:45:46;;;;;;;11.80;5.20;;;;;;;-12.98;63.82;99081.39;101887;1313;72629;-19
2021/12/27 02:48:22;;;;;;;10.20;3.60;;;;;;;-13.23;64.72;99080.71;101641;1315;62823;-19
2021/12/27 02:50:51;;;;;;;5.40;2.60;;;;;;;-12.58;64.81;99085.74;102018;1313;61045;-20
2021/12/27 02:53:19;;;;;;;5.40;2.90;;;;;;;-12.12;63.49;99087.62;101689;1317;75604;-19
2021/12/27 02:55:49;;;;;;;10.60;4.00;;;;;;;-12.39;62.51;99086.14;102060;1316;74802;-19
2021/12/27 02:58:17;;;;;;;14.30;6.50;;;;;;;-12.94;63.05;99087.29;102061;1316;74355;-19
2021/12/27 03:00:49;;;;;;;7.40;2.70;;;;;;;-13.55;63.83;99089.41;102045;1313;62255;-19
2021/12/27 03:03:18;;;;;;;9.40;3.50;;;;;;;-13.48;64.38;99095.02;102030;1314;61170;-19
2021/12/27 03:05:46;;;;;;;5.40;2.90;;;;;;;-12.86;63.59;99098.44;102107;1313;73913;-19
2021/12/27 03:08:16;;;;;;;5.70;3.40;;;;;;;-12.80;62.91;99097.52;102148;1312;74617;-19
2021/12/27 03:10:47;;;;;;;13.70;7.00;;;;;;;-13.14;63.17;99096.04;102062;1312;71800;-19
2021/12/27 03:13:17;;;;;;;17.70;4.90;;;;;;;-13.54;64.83;99097.79;101757;1316;61170;-19
2021/12/27 03:15:49;;;;;;;12.00;4.20;;;;;;;-13.47;65.61;99094.19;101721;1319;61242;-19
2021/12/27 03:18:19;;;;;;;21.00;6.40;;;;;;;-12.70;64.12;99096.64;102080;1313;74130;-19
2021/12/27 03:20:48;;;;;;;25.90;11.20;;;;;;;-12.51;62.59;99097.05;102125;1313;75389;-20
2021/12/27 03:23:17;;;;;;;22.50;12.10;;;;;;;-12.65;62.37;99097.21;102219;1312;73401;-19
2021/12/27 03:25:45;;;;;;;18.20;8.80;;;;;;;-12.99;62.92;99095.42;102095;1312;61240;-19
2021/12/27 03:28:13;;;;;;;15.10;4.10;;;;;;;-13.34;63.53;99095.08;102106;1312;61172;-19
2021/12/27 03:30:41;;;;;;;20.00;6.10;;;;;;;-12.93;63.89;99100.33;102097;1312;74200;-19
2021/12/27 03:33:10;;;;;;;28.10;9.10;;;;;;;-12.39;62.96;99108.73;102127;1312;73715;-20
2021/12/27 03:35:41;;;;;;;28.00;10.60;;;;;;;-12.36;62.50;99110.79;101958;1313;71541;-19
2021/12/27 03:38:10;;;;;;;20.70;6.90;;;;;;;-12.69;62.69;99110.38;101917;1313;61255;-19
2021/12/27 03:40:39;;;;;;;7.60;3.50;;;;;;;-13.20;63.85;99104.96;101853;1314;61238;-19
2021/12/27 03:43:07;;;;;;;7.00;2.60;;;;;;;-13.26;65.02;99104.89;102188;1312;73079;-19
2021/12/27 03:45:39;;;;;;;17.10;4.30;;;;;;;-12.51;64.40;99108.59;101996;1316;73932;-19
2021/12/27 03:48:09;;;;;;;10.70;5.30;;;;;;;-12.33;62.40;99112.34;101909;1315;74508;-19
2021/12/27 03:50:38;;;;;;;9.60;6.50;;;;;;;-12.74;62.05;99115.33;101753;1315;61227;-19
2021/12/27 03:53:07;;;;;;;5.70;3.40;;;;;;;-13.33;62.37;99112.45;102107;1312;61217;-19
2021/12/27 03:55:35;;;;;;;5.20;3.80;;;;;;;-13.75;63.63;99119.65;102187;1313;74279;-19
2021/12/27 03:58:08;;;;;;;6.50;3.70;;;;;;;-13.36;63.77;99120.43;102132;1312;75090;-20
2021/12/27 04:00:58;;;;;;;10.10;5.40;;;;;;;-12.88;62.44;99124.16;102075;1313;73475;-20
2021/12/27 04:03:28;;;;;;;17.80;7.80;;;;;;;-13.01;62.68;99126.14;101969;1313;61246;-19
2021/12/27 04:05:57;;;;;;;5.30;2.80;;;;;;;-13.34;63.14;99126.32;101741;1314;61581;-19
2021/12/27 04:08:34;;;;;;;6.90;4.10;;;;;;;-13.69;63.71;99131.94;102041;1312;74071;-19
2021/12/27 04:11:03;;;;;;;8.90;3.70;;;;;;;-13.30;63.44;99130.21;102064;1313;74292;-19
2021/12/27 04:13:31;;;;;;;25.10;5.70;;;;;;;-12.82;62.50;99133.27;102077;1313;73426;-19
2021/12/27 04:16:01;;;;;;;8.60;4.00;;;;;;;-12.98;61.58;99134.55;102148;1313;61166;-19
2021/12/27 04:18:29;;;;;;;14.10;4.30;;;;;;;-13.43;61.99;99127.67;102150;1313;61197;-19
2021/12/27 04:20:58;;;;;;;3.20;2.20;;;;;;;-13.88;62.94;99127.58;102091;1312;75370;-19
2021/12/27 04:23:26;;;;;;;9.30;4.40;;;;;;;-13.69;64.07;99126.41;102009;1312;73672;-19
2021/12/27 04:25:54;;;;;;;10.00;4.50;;;;;;;-12.95;63.65;99126.40;102058;1312;72936;-19
2021/12/27 04:28:24;;;;;;;19.70;8.80;;;;;;;-12.76;63.02;99128.00;102185;1312;61227;-19
2021/12/27 04:30:52;;;;;;;22.20;7.90;;;;;;;-12.94;63.23;99129.09;102005;1313;215739;-18
2021/12/27 04:33:21;;;;;;;14.50;5.80;;;;;;;-13.28;63.26;99131.24;102076;1313;73866;-19
2021/12/27 04:35:49;;;;;;;11.00;3.30;;;;;;;-13.35;63.63;99131.16;102102;1316;76036;-19
2021/12/27 04:38:17;;;;;;;15.80;5.80;;;;;;;-12.61;63.23;99141.41;102137;1316;72841;-19
2021/12/27 04:40:47;;;;;;;3.70;2.50;;;;;;;-12.26;61.85;99145.87;102120;1313;61138;-19
2021/12/27 04:43:18;;;;;;;7.20;2.40;;;;;;;-12.53;62.28;99149.89;101899;1316;61105;-19
2021/12/27 04:45:48;;;;;;;6.80;2.60;;;;;;;-13.04;62.52;99151.34;101735;1314;76157;-19
2021/12/27 04:48:17;;;;;;;10.40;3.60;;;;;;;-13.54;62.95;99147.55;101710;1313;76135;-19
2021/12/27 04:50:45;;;;;;;4.80;2.30;;;;;;;-13.25;63.01;99147.66;102036;1313;71939;-19
2021/12/27 04:53:16;;;;;;;13.40;5.00;;;;;;;-12.66;63.09;99150.21;101931;1317;61052;-19
2021/12/27 04:55:45;;;;;;;18.10;7.20;;;;;;;-12.74;61.82;99147.09;102075;1312;61117;-19
2021/12/27 04:58:16;;;;;;;11.30;5.00;;;;;;;-13.21;61.50;99145.89;102057;1312;73929;-19
2021/12/27 05:00:46;;;;;;;2.70;1.60;;;;;;;-13.71;62.20;99151.94;101722;1313;74738;-19
2021/12/27 05:03:14;;;;;;;3.60;2.60;;;;;;;-13.68;63.36;99155.16;102038;1312;74559;-19
2021/12/27 05:05:45;;;;;;;6.60;4.00;;;;;;;-13.05;62.78;99160.52;102025;1313;61337;-19
2021/12/27 05:08:16;;;;;;;12.60;7.10;;;;;;;-12.93;61.57;99158.52;102003;1313;61198;-19
2021/12/27 05:10:46;;;;;;;4.90;1.50;;;;;;;-13.30;61.56;99155.27;102137;1313;75631;-19
2021/12/27 05:13:17;;;;;;;1.80;1.50;;;;;;;-13.80;62.05;99155.93;102126;1313;76272;-19
2021/12/27 05:15:47;;;;;;;4.50;2.70;;;;;;;-13.96;63.26;99159.15;102049;1312;71574;-19
2021/12/27 05:18:17;;;;;;;9.60;4.30;;;;;;;-13.30;62.84;99159.79;101922;1314;61106;-19
2021/12/27 05:20:45;;;;;;;6.10;2.70;;;;;;;-12.95;62.08;99161.34;101722;1313;62286;-19
2021/12/27 05:23:13;;;;;;;16.10;7.10;;;;;;;-13.15;62.29;99158.85;101996;1312;72667;-19
2021/12/27 05:25:41;;;;;;;5.40;2.40;;;;;;;-13.52;62.53;99159.77;102031;1313;74470;-19
2021/12/27 05:28:10;;;;;;;2.30;1.30;;;;;;;-13.78;63.15;99157.98;102071;1313;72036;-19
2021/12/27 05:30:39;;;;;;;11.40;5.00;;;;;;;-13.31;63.37;99163.29;102191;1313;61189;-19
2021/12/27 05:33:10;;;;;;;3.00;2.50;;;;;;;-12.86;62.37;99164.66;102075;1312;61814;-19
2021/12/27 05:35:38;;;;;;;9.60;5.00;;;;;;;-13.04;61.76;99166.71;101807;1313;75689;-19
2021/12/27 05:38:06;;;;;;;8.20;4.70;;;;;;;-13.46;61.96;99167.05;102151;1313;76174;-19
2021/12/27 05:40:35;;;;;;;2.70;2.00;;;;;;;-13.93;63.11;99168.89;102131;1313;72898;-19
2021/12/27 05:43:03;;;;;;;5.90;2.90;;;;;;;-13.60;63.96;99172.82;102153;1314;61818;-19
2021/12/27 05:45:33;;;;;;;12.10;4.20;;;;;;;-12.92;62.59;99174.77;102051;1316;62125;-19
2021/12/27 05:48:03;;;;;;;10.30;5.00;;;;;;;-12.87;62.01;99174.51;101699;1317;72758;-19
2021/12/27 05:50:32;;;;;;;11.50;8.10;;;;;;;-13.19;62.29;99171.33;101831;1318;74668;-19
2021/12/27 05:53:01;;;;;;;13.60;4.00;;;;;;;-13.58;63.06;99168.02;101851;1318;72069;-19
2021/12/27 05:55:30;;;;;;;13.00;5.00;;;;;;;-13.48;64.03;99168.52;102126;1313;61207;-19
2021/12/27 05:58:00;;;;;;;22.50;8.10;;;;;;;-12.68;63.12;99167.06;102159;1313;61210;-19
2021/12/27 06:00:28;;;;;;;26.60;12.20;;;;;;;-12.46;61.34;99173.57;102187;1312;76166;-19
2021/12/27 06:02:57;;;;;;;37.10;15.90;;;;;;;-12.84;60.36;99175.20;102249;1312;76286;-19
2021/12/27 06:05:26;;;;;;;26.10;9.70;;;;;;;-13.45;60.90;99168.06;102122;1316;71491;-19
2021/12/27 06:07:54;;;;;;;14.60;4.90;;;;;;;-13.66;62.69;99169.05;101918;1312;62826;-19
2021/12/27 06:10:22;;;;;;;12.60;6.30;;;;;;;-13.00;62.58;99181.16;102100;1312;61111;-19
2021/12/27 06:12:51;;;;;;;14.20;6.10;;;;;;;-12.49;61.29;99194.44;102193;1312;72453;-19
2021/12/27 06:15:19;;;;;;;11.20;5.20;;;;;;;-12.77;60.40;99202.57;102131;1312;75060;-19
2021/12/27 06:17:58;;;;;;;17.40;6.80;;;;;;;-13.53;60.35;99204.52;102111;1312;72820;-19
2021/12/27 06:20:30;;;;;;;6.90;3.10;;;;;;;-14.20;61.68;99206.73;102018;1317;62845;-19
2021/12/27 06:22:59;;;;;;;2.30;1.90;;;;;;;-13.96;62.66;99206.55;101866;1313;61259;-19
2021/12/27 06:25:27;;;;;;;6.50;3.50;;;;;;;-13.31;61.38;99205.05;102099;1312;75608;-19
2021/12/27 06:27:56;;;;;;;9.20;4.60;;;;;;;-13.36;60.44;99207.97;102085;1312;74574;-19
2021/12/27 06:30:26;;;;;;;5.40;3.40;;;;;;;-13.73;60.65;99206.83;101850;1313;70669;-19
2021/12/27 06:32:54;;;;;;;4.40;3.00;;;;;;;-14.16;61.61;99214.16;101949;1312;61186;-19
2021/12/27 06:35:23;;;;;;;2.70;2.40;;;;;;;-14.04;63.19;99217.07;102130;1313;61194;-19
2021/12/27 06:37:51;;;;;;;7.90;4.50;;;;;;;-13.21;62.79;99222.09;102015;1316;74167;-19
2021/12/27 06:40:19;;;;;;;14.50;5.70;;;;;;;-12.85;61.97;99223.18;102066;1312;74631;-19
2021/12/27 06:42:47;;;;;;;12.70;7.60;;;;;;;-12.93;61.46;99226.06;102187;1312;74487;-19
2021/12/27 06:45:16;;;;;;;9.20;4.60;;;;;;;-13.20;61.67;99223.45;102109;1312;61120;-19
2021/12/27 06:47:45;;;;;;;6.30;2.60;;;;;;;-13.44;62.53;99226.20;101699;1313;61177;-19
2021/12/27 06:50:13;;;;;;;9.90;3.70;;;;;;;-13.05;63.18;99227.55;102174;1310;72181;-19
2021/12/27 06:52:42;;;;;;;12.50;4.80;;;;;;;-12.23;62.02;99231.77;102053;1313;76275;-19
2021/12/27 06:55:10;;;;;;;15.90;7.10;;;;;;;-12.02;61.18;99228.20;102041;1313;71901;-20
2021/12/27 06:57:39;;;;;;;36.10;17.70;;;;;;;-12.16;61.51;99223.51;102069;1313;61147;-19
2021/12/27 07:00:11;;;;;;;34.40;15.70;;;;;;;-12.35;62.35;99219.08;102012;1314;61114;-19
2021/12/27 07:02:39;;;;;;;43.60;17.50;;;;;;;-12.45;63.18;99216.92;101616;1317;75682;-19
2021/12/27 07:05:08;;;;;;;30.90;8.90;;;;;;;-12.52;63.67;99217.15;101999;1314;75117;-19
2021/12/27 07:07:37;;;;;;;25.30;8.10;;;;;;;-11.98;63.96;99217.17;102167;1313;74224;-20
2021/12/27 07:10:06;;;;;;;22.40;8.40;;;;;;;-11.05;62.50;99219.81;102105;1312;61138;-20
2021/12/27 07:12:36;;;;;;;47.40;17.00;;;;;;;-10.67;60.89;99219.79;101729;1315;61917;-19
2021/12/27 07:15:05;;;;;;;46.00;18.90;;;;;;;-10.59;61.30;99222.36;102040;1312;75607;-20
2021/12/27 07:17:34;;;;;;;31.60;13.10;;;;;;;-10.61;60.47;99222.33;101893;1313;76523;-19
2021/12/27 07:20:03;;;;;;;21.90;8.30;;;;;;;-10.72;61.17;99228.46;102082;1314;73414;-19
2021/12/27 07:22:31;;;;;;;22.70;10.20;;;;;;;-10.93;62.04;99224.44;102095;1313;61678;-19
2021/12/27 07:24:59;;;;;;;19.00;11.20;;;;;;;-11.06;62.00;99217.79;102204;1316;61348;-19
2021/12/27 07:27:28;;;;;;;25.10;13.00;;;;;;;-11.10;62.55;99222.80;102185;1313;73680;-19
2021/12/27 07:29:56;;;;;;;23.30;10.60;;;;;;;-11.09;63.06;99230.02;102084;1312;74914;-20
2021/12/27 07:32:25;;;;;;;22.60;9.80;;;;;;;-11.08;63.22;99228.69;101854;1313;73521;-18
2021/12/27 07:34:53;;;;;;;14.20;6.00;;;;;;;-10.91;63.43;99227.98;101985;1313;62726;-18
2021/12/27 07:37:21;;;;;;;16.60;6.60;;;;;;;-10.07;62.24;99232.20;102011;1312;61641;-19
2021/12/27 07:39:50;;;;;;;27.60;12.40;;;;;;;-9.62;60.95;99234.58;102098;1313;75746;-19
2021/12/27 07:42:18;;;;;;;35.10;17.80;;;;;;;-9.61;60.12;99229.53;102120;1312;76217;-19
2021/12/27 07:44:46;;;;;;;20.60;10.90;;;;;;;-9.67;59.89;99230.69;102054;1313;74470;-18
2021/12/27 07:47:15;;;;;;;17.80;9.80;;;;;;;-9.83;60.95;99227.61;102066;1313;61066;-18
2021/12/27 07:49:43;;;;;;;35.20;18.80;;;;;;;-9.74;62.01;99230.50;101999;1313;61203;-19
2021/12/27 07:52:12;;;;;;;34.80;16.80;;;;;;;-9.51;61.57;99229.05;102169;1313;75585;-18
2021/12/27 07:54:40;;;;;;;47.20;21.10;;;;;;;-9.21;61.00;99230.48;102042;1316;75086;-19
2021/12/27 07:57:08;;;;;;;45.40;20.80;;;;;;;-9.19;60.44;99230.32;102116;1312;72627;-19
2021/12/27 07:59:37;;;;;;;56.00;25.80;;;;;;;-9.30;61.57;99232.65;102065;1312;61930;-18
2021/12/27 08:02:05;;;;;;;62.10;28.30;;;;;;;-9.44;61.87;99230.42;101941;1314;61652;-19
2021/12/27 08:04:33;;;;;;;48.60;21.40;;;;;;;-9.50;62.45;99236.45;102138;1313;74567;-19
2021/12/27 08:07:03;;;;;;;55.60;25.40;;;;;;;-9.52;63.02;99241.50;101960;1313;75203;-18
2021/12/27 08:09:31;;;;;;;58.20;27.30;;;;;;;-9.36;63.44;99239.36;101931;1316;74462;-19
2021/12/27 08:11:59;;;;;;;62.20;28.40;;;;;;;-9.16;63.84;99239.23;102228;1312;61122;-18
2021/12/27 08:14:28;;;;;;;70.20;28.90;;;;;;;-9.02;63.78;99241.27;102126;1314;61540;-19
2021/12/27 08:16:56;;;;;;;54.90;21.30;;;;;;;-8.84;63.72;99238.92;101961;1313;74855;-19
2021/12/27 08:19:47;;;;;;;55.90;23.60;;;;;;;-8.54;63.35;99238.75;102050;1312;77414;-18
2021/12/27 08:22:15;;;;;;;75.80;32.10;;;;;;;-8.34;62.81;99235.49;102102;1313;73577;-19
2021/12/27 08:24:50;;;;;;;86.00;31.30;;;;;;;-8.07;63.36;99239.98;102121;1312;61037;-19
2021/12/27 08:27:19;;;;;;;62.60;28.80;;;;;;;-7.92;62.70;99240.12;101763;1314;61865;-19
2021/12/27 08:29:47;;;;;;;63.10;27.80;;;;;;;-7.86;62.39;99244.30;101689;1314;74824;-19
2021/12/27 08:32:20;;;;;;;70.10;30.70;;;;;;;-7.68;62.77;99243.58;101887;1312;75836;-19
2021/12/27 08:34:49;;;;;;;46.10;22.60;;;;;;;-7.36;62.92;99246.11;102115;1312;74257;-19
2021/12/27 08:37:17;;;;;;;21.40;11.50;;;;;;;-7.23;62.32;99242.84;102042;1312;61304;-19
2021/12/27 08:39:45;;;;;;;39.50;19.80;;;;;;;-7.14;61.57;99241.78;101883;1312;62409;-19
2021/12/27 08:42:14;;;;;;;37.70;19.20;;;;;;;-7.06;62.01;99238.52;101948;1313;75686;-19
2021/12/27 08:44:42;;;;;;;41.70;19.00;;;;;;;-6.94;62.00;99237.26;102171;1312;75791;-19
2021/12/27 08:47:12;;;;;;;39.70;19.00;;;;;;;-6.80;61.77;99237.33;102202;1313;74558;-19
2021/12/27 08:49:41;;;;;;;32.40;17.30;;;;;;;-6.58;61.70;99236.81;102215;1313;61202;-19
2021/12/27 08:52:30;;;;;;;34.80;16.50;;;;;;;-6.31;61.39;99235.55;102215;1313;61187;-19
2021/12/27 08:55:01;;;;;;;37.20;18.40;;;;;;;-6.10;61.09;99229.25;102247;1312;74922;-19
2021/12/27 08:57:31;;;;;;;40.00;21.20;;;;;;;-5.86;61.00;99228.28;102260;1313;76153;-19
2021/12/27 09:00:00;;;;;;;26.40;9.00;;;;;;;-5.66;60.93;99227.70;102141;1312;73649;-19
2021/12/27 09:02:28;;;;;;;26.70;14.70;;;;;;;-5.55;61.04;99223.35;102165;1312;61082;-19
2021/12/27 09:04:57;;;;;;;38.40;20.30;;;;;;;-5.49;61.28;99219.04;102147;1316;61100;-19
2021/12/27 09:07:25;;;;;;;48.90;23.50;;;;;;;-5.33;61.31;99217.98;102170;1316;75923;-19
2021/12/27 09:09:54;;;;;;;41.20;20.10;;;;;;;-5.17;61.00;99212.51;102160;1312;75853;-19
2021/12/27 09:12:23;;;;;;;28.30;15.10;;;;;;;-5.09;60.93;99208.16;102001;1312;74246;-19
2021/12/27 09:14:51;;;;;;;43.30;22.40;;;;;;;-5.03;60.48;99210.27;102042;1316;61209;-19
2021/12/27 09:17:19;;;;;;;34.40;18.10;;;;;;;-4.91;60.52;99212.96;102104;1316;61820;-19
2021/12/27 09:19:50;;;;;;;34.60;17.70;;;;;;;-4.70;60.42;99215.85;102058;1314;75946;-19
2021/12/27 09:22:18;;;;;;;17.80;9.20;;;;;;;-4.54;60.62;99214.73;102010;1313;76076;-19
2021/12/27 09:24:47;;;;;;;30.00;14.50;;;;;;;-4.39;60.28;99210.58;102017;1312;74473;-19
2021/12/27 09:27:23;;;;;;;20.20;10.90;;;;;;;-4.15;60.26;99210.66;101976;1312;61091;-19
2021/12/27 09:29:52;;;;;;;13.90;6.50;;;;;;;-4.07;60.12;99210.17;101943;1313;61056;-19
2021/12/27 09:32:20;;;;;;;13.90;7.10;;;;;;;-4.07;59.99;99208.14;102025;1313;74678;-19
2021/12/27 09:34:50;;;;;;;14.20;6.80;;;;;;;-3.98;59.75;99208.80;102107;1314;76852;-19
2021/12/27 09:37:19;;;;;;;22.50;11.40;;;;;;;-3.97;59.93;99206.74;102063;1313;74201;-19
2021/12/27 09:39:53;;;;;;;21.90;12.70;;;;;;;-3.80;59.86;99208.46;102033;1314;61136;-19
2021/12/27 09:42:22;;;;;;;29.80;13.20;;;;;;;-3.64;59.25;99204.77;101880;1312;61316;-19
2021/12/27 09:44:51;;;;;;;26.20;13.60;;;;;;;-3.50;59.41;99204.27;101793;1315;73418;-19
2021/12/27 09:47:20;;;;;;;26.70;13.60;;;;;;;-3.28;58.86;99205.33;102301;1312;76189;-19
2021/12/27 09:50:09;;;;;;;27.40;13.90;;;;;;;-3.13;58.43;99201.78;102201;1312;73241;-19
2021/12/27 09:52:37;;;;;;;20.60;11.10;;;;;;;-3.02;58.29;99202.19;101680;1315;61219;-19
2021/12/27 09:55:06;;;;;;;19.90;8.40;;;;;;;-3.21;58.82;99200.77;101942;1312;62102;-19
2021/12/27 09:57:34;;;;;;;18.70;9.50;;;;;;;-3.54;59.59;99196.73;102130;1316;74150;-19
2021/12/27 10:00:07;;;;;;;21.70;9.70;;;;;;;-3.61;59.91;99198.42;101976;1313;76355;-19
2021/12/27 10:02:36;;;;;;;23.40;9.90;;;;;;;-3.38;59.79;99201.30;101778;1315;72526;-19
2021/12/27 10:05:05;;;;;;;23.10;11.40;;;;;;;-3.17;59.68;99200.17;102126;1316;61178;-19
2021/12/27 10:07:53;;;;;;;15.30;7.70;;;;;;;-2.97;58.92;99197.15;101846;1313;63238;-19
2021/12/27 10:10:32;;;;;;;19.50;9.70;;;;;;;-2.80;58.93;99199.82;102030;1313;75575;-19
2021/12/27 10:13:10;;;;;;;19.20;8.50;;;;;;;-2.63;58.17;99202.13;101836;1316;74146;-20
2021/12/27 10:15:50;;;;;;;17.60;10.00;;;;;;;-2.47;58.28;99199.86;102007;1313;74380;-19
2021/12/27 10:18:19;;;;;;;15.70;7.90;;;;;;;-2.22;58.28;99193.40;102250;1314;61087;-19
2021/12/27 10:20:47;;;;;;;19.80;10.30;;;;;;;-2.04;57.28;99189.53;102216;1312;61964;-19
2021/12/27 10:23:19;;;;;;;10.70;5.30;;;;;;;-1.87;57.57;99192.31;102084;1307;71766;-19
2021/12/27 10:25:50;;;;;;;16.50;8.60;;;;;;;-1.68;57.12;99194.84;102080;1313;74066;-19
2021/12/27 10:28:24;;;;;;;18.80;9.00;;;;;;;-1.65;56.82;99192.88;102017;1313;73753;-19
2021/12/27 10:31:00;;;;;;;16.80;9.00;;;;;;;-1.51;56.69;99193.83;102006;1314;61205;-19
2021/12/27 10:33:41;;;;;;;16.70;8.70;;;;;;;-1.40;56.56;99198.77;101866;1319;61203;-19
2021/12/27 10:36:10;;;;;;;11.00;5.20;;;;;;;-1.39;56.04;99197.55;102142;1312;75402;-19
2021/12/27 10:38:41;;;;;;;14.50;8.00;;;;;;;-1.35;56.06;99192.00;102022;1312;75537;-19
2021/12/27 10:41:10;;;;;;;14.70;6.00;;;;;;;-1.41;55.92;99187.58;102131;1316;73554;-19
2021/12/27 10:43:41;;;;;;;11.50;5.70;;;;;;;-1.39;56.25;99186.32;101761;1312;61812;-19
2021/12/27 10:46:15;;;;;;;14.90;6.80;;;;;;;-1.42;55.94;99185.39;101943;1312;61158;-19
2021/12/27 10:48:55;;;;;;;;;;;;;;;-1.41;56.45;99183.66;101691;1313;74916;-19
2021/12/27 10:51:24;;;;;;;12.30;5.70;;;;;;;-1.36;56.33;99184.19;101726;1318;73711;-19
2021/12/27 10:53:55;;;;;;;12.90;5.90;;;;;;;-1.43;56.20;99189.17;102155;1317;73599;-19
2021/12/27 10:56:25;;;;;;;9.50;4.10;;;;;;;-1.35;56.20;99184.49;101884;1316;61417;-19
2021/12/27 10:58:56;;;;;;;11.60;5.50;;;;;;;-1.33;56.05;99186.98;101859;1315;61143;-20
2021/12/27 11:01:26;;;;;;;6.50;3.50;;;;;;;-1.45;55.99;99182.91;101730;1313;76000;-19
2021/12/27 11:04:04;;;;;;;8.00;3.60;;;;;;;-1.61;56.19;99178.98;101652;1315;74414;-19
2021/12/27 11:06:36;;;;;;;9.40;4.10;;;;;;;-1.85;56.55;99182.74;102049;1313;74541;-19
2021/12/27 11:09:05;;;;;;;12.60;5.20;;;;;;;-1.89;57.01;99188.46;102165;1313;61190;-19
2021/12/27 11:11:33;;;;;;;7.70;4.10;;;;;;;-1.86;57.63;99181.21;102135;1312;61129;-20
2021/12/27 11:14:02;;;;;;;9.30;4.90;;;;;;;-1.73;57.44;99174.54;101962;1312;74750;-19
2021/12/27 11:16:31;;;;;;;12.50;4.70;;;;;;;-1.71;56.70;99172.77;102081;1317;76360;-19
2021/12/27 11:19:00;;;;;;;8.60;4.50;;;;;;;-1.76;56.92;99169.71;102109;1312;74378;-19
2021/12/27 11:21:31;;;;;;;11.10;4.60;;;;;;;-1.80;56.89;99171.85;102058;1316;61087;-19
2021/12/27 11:24:00;;;;;;;6.70;4.50;;;;;;;-1.83;56.71;99172.43;102090;1316;61280;-19
2021/12/27 11:26:32;;;;;;;9.60;4.60;;;;;;;-1.83;56.82;99168.71;102232;1313;75612;-19
2021/12/27 11:29:17;;;;;;;9.30;4.40;;;;;;;-1.82;56.58;99170.07;101759;1315;75805;-19
2021/12/27 11:31:55;;;;;;;8.10;3.80;;;;;;;-1.78;56.79;99170.08;102042;1316;71687;-19
2021/12/27 11:34:53;;;;;;;10.40;4.00;;;;;;;-1.73;56.48;99164.16;101844;1314;61894;-19